sensor_id;sensor_type;location;lat;lon;timestamp;P1;durP1;ratioP1;P2;durP2;ratioP2
52956;SDS011;38819;42.692;23.342;2023-06-10T00:02:04;10.50;;;5.90;;
52956;SDS011;38819;42.692;23.342;2023-06-10T00:04:29;9.00;;;6.32;;
52956;SDS011;38819;42.692;23.342;2023-06-10T00:06:55;9.00;;;6.38;;
52956;SDS011;38819;42.692;23.342;2023-06-10T00:09:22;7.22;;;6.45;;
52956;SDS011;38819;42.692;23.342;2023-06-10T00:11:47;12.48;;;6.60;;
52956;SDS011;38819;42.692;23.342;2023-06-10T00:14:13;11.43;;;6.25;;
52956;SDS011;38819;42.692;23.342;2023-06-10T00:16:39;9.63;;;6.70;;
52956;SDS011;38819;42.692;23.342;2023-06-10T00:19:05;12.60;;;6.53;;
52956;SDS011;38819;42.692;23.342;2023-06-10T00:21:31;6.63;;;5.93;;
52956;SDS011;38819;42.692;23.342;2023-06-10T00:26:31;9.80;;;6.23;;
52956;SDS011;38819;42.692;23.342;2023-06-10T00:28:58;9.80;;;6.53;;
52956;SDS011;38819;42.692;23.342;2023-06-10T00:31:23;8.32;;;5.97;;
52956;SDS011;38819;42.692;23.342;2023-06-10T00:36:16;6.40;;;5.25;;
52956;SDS011;38819;42.692;23.342;2023-06-10T00:38:42;11.05;;;5.85;;
52956;SDS011;38819;42.692;23.342;2023-06-10T00:41:07;8.88;;;5.38;;
52956;SDS011;38819;42.692;23.342;2023-06-10T00:43:33;7.95;;;6.88;;
52956;SDS011;38819;42.692;23.342;2023-06-10T00:45:58;9.88;;;6.47;;
52956;SDS011;38819;42.692;23.342;2023-06-10T00:48:24;8.23;;;6.45;;
52956;SDS011;38819;42.692;23.342;2023-06-10T00:50:50;8.07;;;6.72;;
52956;SDS011;38819;42.692;23.342;2023-06-10T00:53:16;7.55;;;5.90;;
52956;SDS011;38819;42.692;23.342;2023-06-10T00:55:41;7.82;;;6.22;;
52956;SDS011;38819;42.692;23.342;2023-06-10T00:58:07;11.00;;;6.57;;
52956;SDS011;38819;42.692;23.342;2023-06-10T01:00:34;10.00;;;7.32;;
52956;SDS011;38819;42.692;23.342;2023-06-10T01:02:59;10.30;;;7.28;;
52956;SDS011;38819;42.692;23.342;2023-06-10T01:05:25;7.13;;;6.22;;
52956;SDS011;38819;42.692;23.342;2023-06-10T01:08:07;7.13;;;6.50;;
52956;SDS011;38819;42.692;23.342;2023-06-10T01:10:49;8.77;;;5.68;;
52956;SDS011;38819;42.692;23.342;2023-06-10T01:13:18;12.10;;;6.00;;
52956;SDS011;38819;42.692;23.342;2023-06-10T01:15:48;9.65;;;6.68;;
52956;SDS011;38819;42.692;23.342;2023-06-10T01:18:15;8.57;;;5.93;;
52956;SDS011;38819;42.692;23.342;2023-06-10T01:20:42;9.95;;;6.20;;
52956;SDS011;38819;42.692;23.342;2023-06-10T01:23:09;11.25;;;6.32;;
52956;SDS011;38819;42.692;23.342;2023-06-10T01:25:37;12.23;;;6.10;;
52956;SDS011;38819;42.692;23.342;2023-06-10T01:28:17;9.82;;;6.40;;
52956;SDS011;38819;42.692;23.342;2023-06-10T01:36:07;7.60;;;6.20;;
52956;SDS011;38819;42.692;23.342;2023-06-10T01:38:36;11.20;;;6.97;;
52956;SDS011;38819;42.692;23.342;2023-06-10T01:41:09;13.27;;;6.10;;
52956;SDS011;38819;42.692;23.342;2023-06-10T01:43:37;10.60;;;6.95;;
52956;SDS011;38819;42.692;23.342;2023-06-10T01:46:03;7.60;;;6.82;;
52956;SDS011;38819;42.692;23.342;2023-06-10T01:48:29;9.98;;;7.40;;
52956;SDS011;38819;42.692;23.342;2023-06-10T01:50:54;10.52;;;7.05;;
52956;SDS011;38819;42.692;23.342;2023-06-10T01:53:21;14.63;;;7.25;;
52956;SDS011;38819;42.692;23.342;2023-06-10T01:55:47;13.57;;;9.25;;
52956;SDS011;38819;42.692;23.342;2023-06-10T01:58:12;10.90;;;8.52;;
52956;SDS011;38819;42.692;23.342;2023-06-10T02:00:38;14.57;;;8.93;;
52956;SDS011;38819;42.692;23.342;2023-06-10T02:03:03;9.32;;;7.90;;
52956;SDS011;38819;42.692;23.342;2023-06-10T02:05:29;9.23;;;7.05;;
52956;SDS011;38819;42.692;23.342;2023-06-10T02:07:54;11.32;;;8.15;;
52956;SDS011;38819;42.692;23.342;2023-06-10T02:10:19;9.88;;;7.70;;
52956;SDS011;38819;42.692;23.342;2023-06-10T02:12:45;9.27;;;6.78;;
52956;SDS011;38819;42.692;23.342;2023-06-10T02:15:10;9.23;;;7.03;;
52956;SDS011;38819;42.692;23.342;2023-06-10T02:17:36;9.73;;;6.80;;
52956;SDS011;38819;42.692;23.342;2023-06-10T02:20:02;13.85;;;7.30;;
52956;SDS011;38819;42.692;23.342;2023-06-10T02:22:31;9.73;;;7.40;;
52956;SDS011;38819;42.692;23.342;2023-06-10T02:24:57;11.18;;;7.50;;
52956;SDS011;38819;42.692;23.342;2023-06-10T02:27:22;10.43;;;7.57;;
52956;SDS011;38819;42.692;23.342;2023-06-10T02:29:48;12.55;;;7.55;;
52956;SDS011;38819;42.692;23.342;2023-06-10T02:32:13;8.88;;;6.38;;
52956;SDS011;38819;42.692;23.342;2023-06-10T02:34:39;12.30;;;7.38;;
52956;SDS011;38819;42.692;23.342;2023-06-10T02:37:05;9.15;;;6.57;;
52956;SDS011;38819;42.692;23.342;2023-06-10T02:39:30;9.38;;;6.53;;
52956;SDS011;38819;42.692;23.342;2023-06-10T02:41:55;9.50;;;6.72;;
52956;SDS011;38819;42.692;23.342;2023-06-10T02:44:21;11.88;;;6.38;;
52956;SDS011;38819;42.692;23.342;2023-06-10T02:46:46;8.32;;;6.82;;
52956;SDS011;38819;42.692;23.342;2023-06-10T02:49:12;10.30;;;7.15;;
52956;SDS011;38819;42.692;23.342;2023-06-10T02:51:38;8.68;;;7.03;;
52956;SDS011;38819;42.692;23.342;2023-06-10T02:54:03;9.75;;;7.10;;
52956;SDS011;38819;42.692;23.342;2023-06-10T02:56:29;14.57;;;6.40;;
52956;SDS011;38819;42.692;23.342;2023-06-10T02:58:55;9.23;;;6.35;;
52956;SDS011;38819;42.692;23.342;2023-06-10T03:01:20;10.38;;;6.85;;
52956;SDS011;38819;42.692;23.342;2023-06-10T03:03:46;10.85;;;6.70;;
52956;SDS011;38819;42.692;23.342;2023-06-10T03:06:12;11.70;;;6.88;;
52956;SDS011;38819;42.692;23.342;2023-06-10T03:08:38;9.90;;;7.30;;
52956;SDS011;38819;42.692;23.342;2023-06-10T03:11:05;9.52;;;7.30;;
52956;SDS011;38819;42.692;23.342;2023-06-10T03:13:32;10.05;;;7.15;;
52956;SDS011;38819;42.692;23.342;2023-06-10T03:15:57;9.23;;;6.87;;
52956;SDS011;38819;42.692;23.342;2023-06-10T03:18:25;7.95;;;7.05;;
52956;SDS011;38819;42.692;23.342;2023-06-10T03:20:51;10.65;;;7.20;;
52956;SDS011;38819;42.692;23.342;2023-06-10T03:23:17;9.05;;;7.78;;
52956;SDS011;38819;42.692;23.342;2023-06-10T03:25:43;9.02;;;8.13;;
52956;SDS011;38819;42.692;23.342;2023-06-10T03:28:09;14.43;;;8.48;;
52956;SDS011;38819;42.692;23.342;2023-06-10T03:30:35;9.85;;;7.95;;
52956;SDS011;38819;42.692;23.342;2023-06-10T03:33:00;12.57;;;8.43;;
52956;SDS011;38819;42.692;23.342;2023-06-10T03:35:26;11.23;;;8.60;;
52956;SDS011;38819;42.692;23.342;2023-06-10T03:37:51;10.88;;;8.45;;
52956;SDS011;38819;42.692;23.342;2023-06-10T03:40:17;12.80;;;8.18;;
52956;SDS011;38819;42.692;23.342;2023-06-10T03:42:42;9.32;;;6.93;;
52956;SDS011;38819;42.692;23.342;2023-06-10T03:45:09;9.73;;;7.30;;
52956;SDS011;38819;42.692;23.342;2023-06-10T03:47:35;8.25;;;5.95;;
52956;SDS011;38819;42.692;23.342;2023-06-10T03:50:02;12.63;;;7.82;;
52956;SDS011;38819;42.692;23.342;2023-06-10T03:52:29;6.50;;;6.00;;
52956;SDS011;38819;42.692;23.342;2023-06-10T03:54:55;8.77;;;5.60;;
52956;SDS011;38819;42.692;23.342;2023-06-10T03:57:21;9.00;;;5.53;;
52956;SDS011;38819;42.692;23.342;2023-06-10T03:59:46;13.70;;;6.13;;
52956;SDS011;38819;42.692;23.342;2023-06-10T04:02:12;9.40;;;6.18;;
52956;SDS011;38819;42.692;23.342;2023-06-10T04:04:37;8.90;;;5.60;;
52956;SDS011;38819;42.692;23.342;2023-06-10T04:07:03;7.13;;;5.68;;
52956;SDS011;38819;42.692;23.342;2023-06-10T04:09:30;7.35;;;5.90;;
52956;SDS011;38819;42.692;23.342;2023-06-10T04:11:55;7.38;;;6.10;;
52956;SDS011;38819;42.692;23.342;2023-06-10T04:14:20;7.47;;;5.25;;
52956;SDS011;38819;42.692;23.342;2023-06-10T04:16:46;8.82;;;5.90;;
52956;SDS011;38819;42.692;23.342;2023-06-10T04:19:11;9.38;;;4.95;;
52956;SDS011;38819;42.692;23.342;2023-06-10T04:21:37;10.85;;;5.80;;
52956;SDS011;38819;42.692;23.342;2023-06-10T04:24:02;9.60;;;5.60;;
52956;SDS011;38819;42.692;23.342;2023-06-10T04:26:28;7.70;;;5.38;;
52956;SDS011;38819;42.692;23.342;2023-06-10T04:28:54;8.38;;;6.00;;
52956;SDS011;38819;42.692;23.342;2023-06-10T04:31:19;9.57;;;5.22;;
52956;SDS011;38819;42.692;23.342;2023-06-10T04:33:45;10.50;;;5.30;;
52956;SDS011;38819;42.692;23.342;2023-06-10T04:36:11;11.35;;;5.38;;
52956;SDS011;38819;42.692;23.342;2023-06-10T04:38:36;9.13;;;5.15;;
52956;SDS011;38819;42.692;23.342;2023-06-10T04:41:02;9.88;;;5.22;;
52956;SDS011;38819;42.692;23.342;2023-06-10T04:43:27;5.75;;;5.18;;
52956;SDS011;38819;42.692;23.342;2023-06-10T04:45:54;11.60;;;5.97;;
52956;SDS011;38819;42.692;23.342;2023-06-10T04:48:19;10.35;;;5.93;;
52956;SDS011;38819;42.692;23.342;2023-06-10T04:50:45;8.00;;;6.20;;
52956;SDS011;38819;42.692;23.342;2023-06-10T04:53:10;8.82;;;5.93;;
52956;SDS011;38819;42.692;23.342;2023-06-10T04:55:36;8.77;;;6.10;;
52956;SDS011;38819;42.692;23.342;2023-06-10T04:58:01;9.85;;;5.68;;
52956;SDS011;38819;42.692;23.342;2023-06-10T05:00:27;11.52;;;6.38;;
52956;SDS011;38819;42.692;23.342;2023-06-10T05:02:52;13.82;;;6.53;;
52956;SDS011;38819;42.692;23.342;2023-06-10T05:05:18;7.28;;;6.05;;
52956;SDS011;38819;42.692;23.342;2023-06-10T05:07:44;11.88;;;6.30;;
52956;SDS011;38819;42.692;23.342;2023-06-10T05:10:10;11.65;;;6.18;;
52956;SDS011;38819;42.692;23.342;2023-06-10T05:12:37;15.55;;;6.63;;
52956;SDS011;38819;42.692;23.342;2023-06-10T05:15:04;11.50;;;5.97;;
52956;SDS011;38819;42.692;23.342;2023-06-10T05:17:30;10.60;;;6.03;;
52956;SDS011;38819;42.692;23.342;2023-06-10T05:19:56;10.35;;;6.22;;
52956;SDS011;38819;42.692;23.342;2023-06-10T05:22:21;13.98;;;6.18;;
52956;SDS011;38819;42.692;23.342;2023-06-10T05:24:49;10.18;;;6.97;;
52956;SDS011;38819;42.692;23.342;2023-06-10T05:27:14;7.95;;;6.95;;
52956;SDS011;38819;42.692;23.342;2023-06-10T05:29:40;10.68;;;7.65;;
52956;SDS011;38819;42.692;23.342;2023-06-10T05:32:05;9.45;;;6.85;;
52956;SDS011;38819;42.692;23.342;2023-06-10T05:34:31;8.85;;;6.68;;
52956;SDS011;38819;42.692;23.342;2023-06-10T05:36:57;10.60;;;7.18;;
52956;SDS011;38819;42.692;23.342;2023-06-10T05:39:22;10.15;;;6.70;;
52956;SDS011;38819;42.692;23.342;2023-06-10T05:41:48;17.98;;;7.65;;
52956;SDS011;38819;42.692;23.342;2023-06-10T05:44:13;12.55;;;7.97;;
52956;SDS011;38819;42.692;23.342;2023-06-10T05:46:39;11.80;;;8.23;;
52956;SDS011;38819;42.692;23.342;2023-06-10T05:49:04;10.77;;;7.70;;
52956;SDS011;38819;42.692;23.342;2023-06-10T05:51:30;12.60;;;8.70;;
52956;SDS011;38819;42.692;23.342;2023-06-10T05:53:55;12.43;;;8.95;;
52956;SDS011;38819;42.692;23.342;2023-06-10T05:56:21;13.82;;;8.68;;
52956;SDS011;38819;42.692;23.342;2023-06-10T05:58:50;17.27;;;8.73;;
52956;SDS011;38819;42.692;23.342;2023-06-10T06:01:16;9.00;;;6.70;;
52956;SDS011;38819;42.692;23.342;2023-06-10T06:03:42;12.27;;;8.30;;
52956;SDS011;38819;42.692;23.342;2023-06-10T06:06:07;13.70;;;8.68;;
52956;SDS011;38819;42.692;23.342;2023-06-10T06:08:33;17.70;;;8.82;;
52956;SDS011;38819;42.692;23.342;2023-06-10T06:10:58;18.42;;;9.13;;
52956;SDS011;38819;42.692;23.342;2023-06-10T06:13:23;12.85;;;7.82;;
52956;SDS011;38819;42.692;23.342;2023-06-10T06:15:49;15.23;;;8.30;;
52956;SDS011;38819;42.692;23.342;2023-06-10T06:18:15;16.23;;;7.30;;
52956;SDS011;38819;42.692;23.342;2023-06-10T06:20:41;12.35;;;7.88;;
52956;SDS011;38819;42.692;23.342;2023-06-10T06:23:06;9.45;;;7.70;;
52956;SDS011;38819;42.692;23.342;2023-06-10T06:25:34;12.65;;;7.80;;
52956;SDS011;38819;42.692;23.342;2023-06-10T06:28:00;13.20;;;7.93;;
52956;SDS011;38819;42.692;23.342;2023-06-10T06:30:26;11.50;;;7.63;;
52956;SDS011;38819;42.692;23.342;2023-06-10T06:32:51;11.48;;;8.00;;
52956;SDS011;38819;42.692;23.342;2023-06-10T06:35:17;8.68;;;7.35;;
52956;SDS011;38819;42.692;23.342;2023-06-10T06:37:42;8.20;;;6.03;;
52956;SDS011;38819;42.692;23.342;2023-06-10T06:40:08;11.68;;;6.28;;
52956;SDS011;38819;42.692;23.342;2023-06-10T06:42:34;10.95;;;7.97;;
52956;SDS011;38819;42.692;23.342;2023-06-10T06:44:59;8.32;;;7.45;;
52956;SDS011;38819;42.692;23.342;2023-06-10T06:47:24;10.55;;;7.53;;
52956;SDS011;38819;42.692;23.342;2023-06-10T06:49:51;9.75;;;6.60;;
52956;SDS011;38819;42.692;23.342;2023-06-10T06:52:17;10.02;;;5.68;;
52956;SDS011;38819;42.692;23.342;2023-06-10T06:54:42;9.00;;;6.00;;
52956;SDS011;38819;42.692;23.342;2023-06-10T06:57:08;8.27;;;4.93;;
52956;SDS011;38819;42.692;23.342;2023-06-10T06:59:33;8.85;;;5.72;;
52956;SDS011;38819;42.692;23.342;2023-06-10T07:01:59;11.07;;;5.82;;
52956;SDS011;38819;42.692;23.342;2023-06-10T07:04:24;6.28;;;5.03;;
52956;SDS011;38819;42.692;23.342;2023-06-10T07:06:50;10.02;;;4.53;;
52956;SDS011;38819;42.692;23.342;2023-06-10T07:09:16;6.18;;;5.57;;
52956;SDS011;38819;42.692;23.342;2023-06-10T07:11:41;8.73;;;5.53;;
52956;SDS011;38819;42.692;23.342;2023-06-10T07:14:07;6.43;;;5.32;;
52956;SDS011;38819;42.692;23.342;2023-06-10T07:16:33;19.08;;;5.80;;
52956;SDS011;38819;42.692;23.342;2023-06-10T07:18:59;8.23;;;5.38;;
52956;SDS011;38819;42.692;23.342;2023-06-10T07:21:24;8.07;;;4.78;;
52956;SDS011;38819;42.692;23.342;2023-06-10T07:23:50;8.45;;;4.25;;
52956;SDS011;38819;42.692;23.342;2023-06-10T07:26:18;7.35;;;4.07;;
52956;SDS011;38819;42.692;23.342;2023-06-10T07:28:44;9.50;;;4.57;;
52956;SDS011;38819;42.692;23.342;2023-06-10T07:31:09;6.47;;;4.60;;
52956;SDS011;38819;42.692;23.342;2023-06-10T07:33:37;4.88;;;3.78;;
52956;SDS011;38819;42.692;23.342;2023-06-10T07:36:04;5.25;;;3.70;;
52956;SDS011;38819;42.692;23.342;2023-06-10T07:38:30;8.07;;;4.20;;
52956;SDS011;38819;42.692;23.342;2023-06-10T07:40:55;5.38;;;3.83;;
52956;SDS011;38819;42.692;23.342;2023-06-10T07:43:21;5.57;;;3.97;;
52956;SDS011;38819;42.692;23.342;2023-06-10T07:45:47;9.13;;;3.35;;
52956;SDS011;38819;42.692;23.342;2023-06-10T07:48:13;9.10;;;3.90;;
52956;SDS011;38819;42.692;23.342;2023-06-10T07:50:38;6.10;;;4.00;;
52956;SDS011;38819;42.692;23.342;2023-06-10T07:53:04;7.82;;;4.55;;
52956;SDS011;38819;42.692;23.342;2023-06-10T07:55:30;5.65;;;3.67;;
52956;SDS011;38819;42.692;23.342;2023-06-10T07:57:55;3.70;;;3.30;;
52956;SDS011;38819;42.692;23.342;2023-06-10T08:00:21;3.92;;;3.15;;
52956;SDS011;38819;42.692;23.342;2023-06-10T08:02:46;3.63;;;3.10;;
52956;SDS011;38819;42.692;23.342;2023-06-10T08:05:12;6.03;;;3.72;;
52956;SDS011;38819;42.692;23.342;2023-06-10T08:07:38;5.78;;;3.55;;
52956;SDS011;38819;42.692;23.342;2023-06-10T08:10:04;10.82;;;7.40;;
52956;SDS011;38819;42.692;23.342;2023-06-10T08:12:31;23.60;;;16.40;;
52956;SDS011;38819;42.692;23.342;2023-06-10T08:14:58;20.95;;;14.18;;
52956;SDS011;38819;42.692;23.342;2023-06-10T08:17:23;12.10;;;8.95;;
52956;SDS011;38819;42.692;23.342;2023-06-10T08:19:49;14.32;;;9.57;;
52956;SDS011;38819;42.692;23.342;2023-06-10T08:22:14;13.05;;;7.82;;
52956;SDS011;38819;42.692;23.342;2023-06-10T08:24:40;12.32;;;6.80;;
52956;SDS011;38819;42.692;23.342;2023-06-10T08:27:05;11.20;;;4.20;;
52956;SDS011;38819;42.692;23.342;2023-06-10T08:29:31;6.28;;;3.50;;
52956;SDS011;38819;42.692;23.342;2023-06-10T08:31:57;3.30;;;3.00;;
52956;SDS011;38819;42.692;23.342;2023-06-10T08:34:22;5.45;;;3.50;;
52956;SDS011;38819;42.692;23.342;2023-06-10T08:36:48;4.78;;;3.10;;
52956;SDS011;38819;42.692;23.342;2023-06-10T08:39:18;5.85;;;3.03;;
52956;SDS011;38819;42.692;23.342;2023-06-10T08:41:46;6.28;;;3.42;;
52956;SDS011;38819;42.692;23.342;2023-06-10T08:44:35;5.97;;;3.47;;
52956;SDS011;38819;42.692;23.342;2023-06-10T08:47:04;7.75;;;4.20;;
52956;SDS011;38819;42.692;23.342;2023-06-10T08:49:36;10.00;;;3.72;;
52956;SDS011;38819;42.692;23.342;2023-06-10T08:52:05;5.18;;;3.58;;
52956;SDS011;38819;42.692;23.342;2023-06-10T08:54:32;3.97;;;3.60;;
52956;SDS011;38819;42.692;23.342;2023-06-10T08:57:03;5.88;;;4.10;;
52956;SDS011;38819;42.692;23.342;2023-06-10T08:59:33;6.40;;;4.18;;
52956;SDS011;38819;42.692;23.342;2023-06-10T09:01:59;9.13;;;5.55;;
52956;SDS011;38819;42.692;23.342;2023-06-10T09:04:27;10.52;;;7.13;;
52956;SDS011;38819;42.692;23.342;2023-06-10T09:06:53;3.67;;;3.38;;
52956;SDS011;38819;42.692;23.342;2023-06-10T09:09:18;3.90;;;3.00;;
52956;SDS011;38819;42.692;23.342;2023-06-10T09:11:47;4.90;;;3.42;;
52956;SDS011;38819;42.692;23.342;2023-06-10T09:14:13;3.90;;;2.53;;
52956;SDS011;38819;42.692;23.342;2023-06-10T09:16:39;5.68;;;3.05;;
52956;SDS011;38819;42.692;23.342;2023-06-10T09:19:05;2.70;;;2.17;;
52956;SDS011;38819;42.692;23.342;2023-06-10T09:21:33;5.47;;;3.20;;
52956;SDS011;38819;42.692;23.342;2023-06-10T09:23:59;4.03;;;2.63;;
52956;SDS011;38819;42.692;23.342;2023-06-10T09:26:28;3.65;;;3.05;;
52956;SDS011;38819;42.692;23.342;2023-06-10T09:29:04;5.07;;;2.60;;
52956;SDS011;38819;42.692;23.342;2023-06-10T09:31:30;3.38;;;3.08;;
52956;SDS011;38819;42.692;23.342;2023-06-10T09:34:09;6.28;;;2.97;;
52956;SDS011;38819;42.692;23.342;2023-06-10T09:36:37;6.63;;;2.90;;
52956;SDS011;38819;42.692;23.342;2023-06-10T09:39:03;7.23;;;4.10;;
52956;SDS011;38819;42.692;23.342;2023-06-10T09:41:33;10.40;;;4.78;;
52956;SDS011;38819;42.692;23.342;2023-06-10T09:44:00;8.73;;;4.53;;
52956;SDS011;38819;42.692;23.342;2023-06-10T09:46:25;3.67;;;3.03;;
52956;SDS011;38819;42.692;23.342;2023-06-10T09:48:58;5.38;;;2.65;;
52956;SDS011;38819;42.692;23.342;2023-06-10T09:51:23;3.00;;;2.47;;
52956;SDS011;38819;42.692;23.342;2023-06-10T09:53:50;3.60;;;2.95;;
52956;SDS011;38819;42.692;23.342;2023-06-10T09:56:17;3.75;;;2.90;;
52956;SDS011;38819;42.692;23.342;2023-06-10T09:58:44;5.53;;;3.60;;
52956;SDS011;38819;42.692;23.342;2023-06-10T10:01:11;2.55;;;2.22;;
52956;SDS011;38819;42.692;23.342;2023-06-10T10:06:14;8.57;;;4.63;;
52956;SDS011;38819;42.692;23.342;2023-06-10T10:08:41;3.97;;;3.35;;
52956;SDS011;38819;42.692;23.342;2023-06-10T10:11:06;5.05;;;4.07;;
52956;SDS011;38819;42.692;23.342;2023-06-10T10:13:33;4.25;;;3.47;;
52956;SDS011;38819;42.692;23.342;2023-06-10T10:16:00;6.05;;;2.95;;
52956;SDS011;38819;42.692;23.342;2023-06-10T10:18:29;3.90;;;3.33;;
52956;SDS011;38819;42.692;23.342;2023-06-10T10:20:57;3.40;;;2.70;;
52956;SDS011;38819;42.692;23.342;2023-06-10T10:24:16;2.90;;;2.67;;
52956;SDS011;38819;42.692;23.342;2023-06-10T10:26:28;7.43;;;3.55;;
52956;SDS011;38819;42.692;23.342;2023-06-10T10:31:44;4.80;;;4.15;;
52956;SDS011;38819;42.692;23.342;2023-06-10T10:34:15;7.28;;;3.90;;
52956;SDS011;38819;42.692;23.342;2023-06-10T10:36:43;5.35;;;2.70;;
52956;SDS011;38819;42.692;23.342;2023-06-10T10:39:09;3.97;;;2.77;;
52956;SDS011;38819;42.692;23.342;2023-06-10T10:41:36;3.53;;;2.92;;
52956;SDS011;38819;42.692;23.342;2023-06-10T10:44:03;4.75;;;3.63;;
52956;SDS011;38819;42.692;23.342;2023-06-10T10:46:39;6.57;;;3.10;;
52956;SDS011;38819;42.692;23.342;2023-06-10T10:49:07;3.40;;;2.90;;
52956;SDS011;38819;42.692;23.342;2023-06-10T10:51:35;5.18;;;2.88;;
52956;SDS011;38819;42.692;23.342;2023-06-10T10:54:14;3.03;;;2.63;;
52956;SDS011;38819;42.692;23.342;2023-06-10T10:56:39;2.55;;;2.35;;
52956;SDS011;38819;42.692;23.342;2023-06-10T10:59:25;6.38;;;2.50;;
52956;SDS011;38819;42.692;23.342;2023-06-10T11:02:07;7.15;;;2.50;;
52956;SDS011;38819;42.692;23.342;2023-06-10T11:04:33;2.72;;;2.30;;
52956;SDS011;38819;42.692;23.342;2023-06-10T11:07:05;3.47;;;2.97;;
52956;SDS011;38819;42.692;23.342;2023-06-10T11:09:31;5.03;;;2.67;;
52956;SDS011;38819;42.692;23.342;2023-06-10T11:11:57;3.58;;;3.22;;
52956;SDS011;38819;42.692;23.342;2023-06-10T11:14:26;5.95;;;2.97;;
52956;SDS011;38819;42.692;23.342;2023-06-10T11:16:58;3.38;;;3.08;;
52956;SDS011;38819;42.692;23.342;2023-06-10T11:19:37;4.88;;;3.30;;
52956;SDS011;38819;42.692;23.342;2023-06-10T11:22:05;6.47;;;2.67;;
52956;SDS011;38819;42.692;23.342;2023-06-10T11:24:32;3.70;;;2.78;;
52956;SDS011;38819;42.692;23.342;2023-06-10T11:30:17;4.90;;;2.72;;
52956;SDS011;38819;42.692;23.342;2023-06-10T11:32:44;6.47;;;4.28;;
52956;SDS011;38819;42.692;23.342;2023-06-10T11:35:10;7.18;;;4.65;;
52956;SDS011;38819;42.692;23.342;2023-06-10T11:37:36;4.07;;;3.67;;
52956;SDS011;38819;42.692;23.342;2023-06-10T11:40:01;8.55;;;3.78;;
52956;SDS011;38819;42.692;23.342;2023-06-10T11:42:27;5.40;;;4.35;;
52956;SDS011;38819;42.692;23.342;2023-06-10T11:44:53;4.28;;;3.70;;
52956;SDS011;38819;42.692;23.342;2023-06-10T11:47:20;7.63;;;3.63;;
52956;SDS011;38819;42.692;23.342;2023-06-10T11:49:55;3.58;;;2.63;;
52956;SDS011;38819;42.692;23.342;2023-06-10T11:52:31;5.60;;;5.07;;
52956;SDS011;38819;42.692;23.342;2023-06-10T11:54:58;19.00;;;11.32;;
52956;SDS011;38819;42.692;23.342;2023-06-10T11:57:24;4.95;;;3.97;;
52956;SDS011;38819;42.692;23.342;2023-06-10T11:59:49;5.47;;;3.55;;
52956;SDS011;38819;42.692;23.342;2023-06-10T12:02:15;5.45;;;4.95;;
52956;SDS011;38819;42.692;23.342;2023-06-10T12:04:41;9.93;;;3.42;;
52956;SDS011;38819;42.692;23.342;2023-06-10T12:07:07;7.10;;;4.45;;
52956;SDS011;38819;42.692;23.342;2023-06-10T12:09:32;5.43;;;4.70;;
52956;SDS011;38819;42.692;23.342;2023-06-10T12:12:02;2.90;;;2.47;;
52956;SDS011;38819;42.692;23.342;2023-06-10T12:20:02;4.22;;;2.65;;
52956;SDS011;38819;42.692;23.342;2023-06-10T12:22:36;4.35;;;2.95;;
52956;SDS011;38819;42.692;23.342;2023-06-10T12:25:05;2.63;;;2.22;;
52956;SDS011;38819;42.692;23.342;2023-06-10T12:27:32;3.38;;;2.55;;
52956;SDS011;38819;42.692;23.342;2023-06-10T12:29:59;2.83;;;2.40;;
52956;SDS011;38819;42.692;23.342;2023-06-10T12:35:08;4.28;;;3.25;;
52956;SDS011;38819;42.692;23.342;2023-06-10T12:37:35;5.85;;;3.35;;
52956;SDS011;38819;42.692;23.342;2023-06-10T12:40:03;4.75;;;3.17;;
52956;SDS011;38819;42.692;23.342;2023-06-10T12:42:31;3.05;;;2.53;;
52956;SDS011;38819;42.692;23.342;2023-06-10T12:44:59;2.60;;;2.40;;
52956;SDS011;38819;42.692;23.342;2023-06-10T12:47:31;5.60;;;2.60;;
52956;SDS011;38819;42.692;23.342;2023-06-10T12:49:59;7.63;;;2.78;;
52956;SDS011;38819;42.692;23.342;2023-06-10T12:52:26;5.57;;;2.75;;
52956;SDS011;38819;42.692;23.342;2023-06-10T12:54:52;4.07;;;2.45;;
52956;SDS011;38819;42.692;23.342;2023-06-10T12:57:19;4.97;;;2.45;;
52956;SDS011;38819;42.692;23.342;2023-06-10T12:59:44;10.50;;;2.78;;
52956;SDS011;38819;42.692;23.342;2023-06-10T13:02:15;2.88;;;2.50;;
52956;SDS011;38819;42.692;23.342;2023-06-10T13:04:41;5.50;;;3.00;;
52956;SDS011;38819;42.692;23.342;2023-06-10T13:07:08;3.50;;;2.65;;
52956;SDS011;38819;42.692;23.342;2023-06-10T13:09:35;2.60;;;2.30;;
52956;SDS011;38819;42.692;23.342;2023-06-10T13:12:01;3.00;;;2.67;;
52956;SDS011;38819;42.692;23.342;2023-06-10T13:14:26;6.35;;;2.40;;
52956;SDS011;38819;42.692;23.342;2023-06-10T13:16:53;3.63;;;2.78;;
52956;SDS011;38819;42.692;23.342;2023-06-10T13:19:19;9.48;;;6.68;;
52956;SDS011;38819;42.692;23.342;2023-06-10T13:21:46;8.70;;;2.83;;
52956;SDS011;38819;42.692;23.342;2023-06-10T13:24:12;6.88;;;3.10;;
52956;SDS011;38819;42.692;23.342;2023-06-10T13:26:37;10.55;;;3.65;;
52956;SDS011;38819;42.692;23.342;2023-06-10T13:29:03;10.02;;;3.08;;
52956;SDS011;38819;42.692;23.342;2023-06-10T13:31:29;6.45;;;3.60;;
52956;SDS011;38819;42.692;23.342;2023-06-10T13:33:54;8.82;;;4.07;;
52956;SDS011;38819;42.692;23.342;2023-06-10T13:36:20;6.25;;;3.42;;
52956;SDS011;38819;42.692;23.342;2023-06-10T13:38:45;5.00;;;3.78;;
52956;SDS011;38819;42.692;23.342;2023-06-10T13:41:12;7.13;;;3.55;;
52956;SDS011;38819;42.692;23.342;2023-06-10T13:43:38;6.20;;;3.58;;
52956;SDS011;38819;42.692;23.342;2023-06-10T13:46:04;6.47;;;3.90;;
52956;SDS011;38819;42.692;23.342;2023-06-10T13:48:30;7.22;;;3.90;;
52956;SDS011;38819;42.692;23.342;2023-06-10T13:50:56;7.35;;;4.30;;
52956;SDS011;38819;42.692;23.342;2023-06-10T13:53:25;6.88;;;4.05;;
52956;SDS011;38819;42.692;23.342;2023-06-10T13:55:50;12.32;;;4.72;;
52956;SDS011;38819;42.692;23.342;2023-06-10T13:58:16;5.65;;;3.58;;
52956;SDS011;38819;42.692;23.342;2023-06-10T14:00:41;5.45;;;3.78;;
52956;SDS011;38819;42.692;23.342;2023-06-10T14:03:06;5.07;;;4.18;;
52956;SDS011;38819;42.692;23.342;2023-06-10T14:05:32;9.82;;;3.92;;
52956;SDS011;38819;42.692;23.342;2023-06-10T14:07:58;8.13;;;4.63;;
52956;SDS011;38819;42.692;23.342;2023-06-10T14:10:24;9.57;;;8.00;;
52956;SDS011;38819;42.692;23.342;2023-06-10T14:12:49;4.45;;;3.58;;
52956;SDS011;38819;42.692;23.342;2023-06-10T14:15:15;6.60;;;4.35;;
52956;SDS011;38819;42.692;23.342;2023-06-10T14:17:41;5.55;;;4.00;;
52956;SDS011;38819;42.692;23.342;2023-06-10T14:20:07;6.35;;;3.72;;
52956;SDS011;38819;42.692;23.342;2023-06-10T14:22:33;3.75;;;3.35;;
52956;SDS011;38819;42.692;23.342;2023-06-10T14:24:58;10.13;;;5.38;;
52956;SDS011;38819;42.692;23.342;2023-06-10T14:27:23;5.53;;;4.00;;
52956;SDS011;38819;42.692;23.342;2023-06-10T14:29:49;7.57;;;3.90;;
52956;SDS011;38819;42.692;23.342;2023-06-10T14:32:14;9.15;;;4.22;;
52956;SDS011;38819;42.692;23.342;2023-06-10T14:34:40;7.43;;;4.45;;
52956;SDS011;38819;42.692;23.342;2023-06-10T14:37:07;4.68;;;3.90;;
52956;SDS011;38819;42.692;23.342;2023-06-10T14:39:32;4.57;;;4.10;;
52956;SDS011;38819;42.692;23.342;2023-06-10T14:41:58;6.72;;;3.50;;
52956;SDS011;38819;42.692;23.342;2023-06-10T14:44:24;5.10;;;3.55;;
52956;SDS011;38819;42.692;23.342;2023-06-10T14:46:49;4.00;;;3.60;;
52956;SDS011;38819;42.692;23.342;2023-06-10T14:49:14;8.40;;;4.20;;
52956;SDS011;38819;42.692;23.342;2023-06-10T14:51:40;5.38;;;3.70;;
52956;SDS011;38819;42.692;23.342;2023-06-10T14:54:05;4.43;;;3.60;;
52956;SDS011;38819;42.692;23.342;2023-06-10T14:56:31;5.50;;;3.03;;